sensor_id;sensor_type;location;lat;lon;timestamp;pressure;altitude;pressure_sealevel;temperature;humidity
80851;BME280;70268;50.292;6.666;2023-06-14T00:00:47;96214.91;;;25.11;53.43
80851;BME280;70268;50.292;6.666;2023-06-14T00:03:16;96219.41;;;25.11;53.35
80851;BME280;70268;50.292;6.666;2023-06-14T00:05:48;96215.88;;;25.17;53.16
80851;BME280;70268;50.292;6.666;2023-06-14T00:08:17;96224.47;;;25.12;53.16
80851;BME280;70268;50.292;6.666;2023-06-14T00:10:46;96220.84;;;25.07;53.32
80851;BME280;70268;50.292;6.666;2023-06-14T00:13:14;96224.91;;;25.09;53.35
80851;BME280;70268;50.292;6.666;2023-06-14T00:15:43;96226.78;;;25.02;53.43
80851;BME280;70268;50.292;6.666;2023-06-14T00:18:12;96218.78;;;25.09;53.42
80851;BME280;70268;50.292;6.666;2023-06-14T00:20:40;96219.00;;;25.07;53.52
80851;BME280;70268;50.292;6.666;2023-06-14T00:23:11;96218.78;;;25.09;53.46
80851;BME280;70268;50.292;6.666;2023-06-14T00:25:39;96218.00;;;25.08;53.31
80851;BME280;70268;50.292;6.666;2023-06-14T00:28:08;96216.00;;;25.03;53.54
80851;BME280;70268;50.292;6.666;2023-06-14T00:30:37;96232.28;;;25.00;53.53
80851;BME280;70268;50.292;6.666;2023-06-14T00:33:05;96224.94;;;25.02;53.40
80851;BME280;70268;50.292;6.666;2023-06-14T00:35:34;96221.50;;;25.02;53.43
80851;BME280;70268;50.292;6.666;2023-06-14T00:38:04;96220.31;;;24.98;53.95
80851;BME280;70268;50.292;6.666;2023-06-14T00:40:34;96222.72;;;24.99;53.70
80851;BME280;70268;50.292;6.666;2023-06-14T00:43:02;96228.25;;;24.98;53.55
80851;BME280;70268;50.292;6.666;2023-06-14T00:45:31;96218.69;;;24.97;53.64
80851;BME280;70268;50.292;6.666;2023-06-14T00:48:03;96227.44;;;24.97;53.56
80851;BME280;70268;50.292;6.666;2023-06-14T00:50:34;96220.56;;;24.90;53.68
80851;BME280;70268;50.292;6.666;2023-06-14T00:53:03;96225.81;;;24.96;53.88
80851;BME280;70268;50.292;6.666;2023-06-14T00:55:34;96228.66;;;24.95;53.89
80851;BME280;70268;50.292;6.666;2023-06-14T00:58:03;96221.41;;;24.83;53.91
80851;BME280;70268;50.292;6.666;2023-06-14T01:00:31;96223.00;;;24.84;54.00
80851;BME280;70268;50.292;6.666;2023-06-14T01:03:00;96222.16;;;24.91;53.74
80851;BME280;70268;50.292;6.666;2023-06-14T01:05:30;96225.22;;;24.87;54.25
80851;BME280;70268;50.292;6.666;2023-06-14T01:08:14;96219.72;;;24.89;54.07
80851;BME280;70268;50.292;6.666;2023-06-14T01:10:56;96223.84;;;24.85;54.27
80851;BME280;70268;50.292;6.666;2023-06-14T01:13:32;96219.63;;;24.77;54.54
80851;BME280;70268;50.292;6.666;2023-06-14T01:16:01;96222.66;;;24.81;54.18
80851;BME280;70268;50.292;6.666;2023-06-14T01:18:30;96219.41;;;24.79;54.21
80851;BME280;70268;50.292;6.666;2023-06-14T01:21:02;96217.19;;;24.76;54.31
80851;BME280;70268;50.292;6.666;2023-06-14T01:23:34;96222.50;;;24.76;54.16
80851;BME280;70268;50.292;6.666;2023-06-14T01:26:02;96212.56;;;24.71;54.47
80851;BME280;70268;50.292;6.666;2023-06-14T01:28:33;96219.22;;;24.74;54.50
80851;BME280;70268;50.292;6.666;2023-06-14T01:31:04;96216.38;;;24.75;54.16
80851;BME280;70268;50.292;6.666;2023-06-14T01:33:35;96216.00;;;24.72;54.24
80851;BME280;70268;50.292;6.666;2023-06-14T01:36:05;96215.78;;;24.73;54.09
80851;BME280;70268;50.292;6.666;2023-06-14T01:38:37;96215.41;;;24.69;54.43
80851;BME280;70268;50.292;6.666;2023-06-14T01:41:06;96220.91;;;24.68;54.24
80851;BME280;70268;50.292;6.666;2023-06-14T01:43:36;96222.16;;;24.65;54.63
80851;BME280;70268;50.292;6.666;2023-06-14T01:46:06;96221.31;;;24.65;54.74
80851;BME280;70268;50.292;6.666;2023-06-14T01:48:35;96219.94;;;24.62;54.68
80851;BME280;70268;50.292;6.666;2023-06-14T01:51:03;96225.38;;;24.67;54.45
80851;BME280;70268;50.292;6.666;2023-06-14T01:53:32;96223.22;;;24.58;54.85
80851;BME280;70268;50.292;6.666;2023-06-14T01:56:02;96225.22;;;24.62;54.52
80851;BME280;70268;50.292;6.666;2023-06-14T01:58:31;96223.59;;;24.61;54.46
80851;BME280;70268;50.292;6.666;2023-06-14T02:01:00;96225.59;;;24.66;54.54
80851;BME280;70268;50.292;6.666;2023-06-14T02:03:29;96223.38;;;24.63;54.57
80851;BME280;70268;50.292;6.666;2023-06-14T02:05:58;96222.16;;;24.65;54.43
80851;BME280;70268;50.292;6.666;2023-06-14T02:08:27;96224.16;;;24.63;54.13
80851;BME280;70268;50.292;6.666;2023-06-14T02:10:56;96227.66;;;24.64;54.32
80851;BME280;70268;50.292;6.666;2023-06-14T02:13:25;96220.91;;;24.68;54.26
80851;BME280;70268;50.292;6.666;2023-06-14T02:15:54;96225.22;;;24.62;54.43
80851;BME280;70268;50.292;6.666;2023-06-14T02:18:23;96219.94;;;24.62;54.47
80851;BME280;70268;50.292;6.666;2023-06-14T02:20:52;96224.78;;;24.65;54.44
80851;BME280;70268;50.292;6.666;2023-06-14T02:23:21;96226.78;;;24.70;54.45
80851;BME280;70268;50.292;6.666;2023-06-14T02:25:50;96220.72;;;24.63;54.59
80851;BME280;70268;50.292;6.666;2023-06-14T02:28:19;96229.22;;;24.72;54.25
80851;BME280;70268;50.292;6.666;2023-06-14T02:30:49;96229.06;;;24.66;54.26
80851;BME280;70268;50.292;6.666;2023-06-14T02:33:18;96227.84;;;24.62;54.58
80851;BME280;70268;50.292;6.666;2023-06-14T02:35:47;96236.22;;;24.59;54.29
80851;BME280;70268;50.292;6.666;2023-06-14T02:38:15;96227.84;;;24.62;54.54
80851;BME280;70268;50.292;6.666;2023-06-14T02:40:44;96231.56;;;24.55;54.63
80851;BME280;70268;50.292;6.666;2023-06-14T02:43:12;96234.59;;;24.58;54.63
80851;BME280;70268;50.292;6.666;2023-06-14T02:45:42;96225.66;;;24.52;54.76
80851;BME280;70268;50.292;6.666;2023-06-14T02:48:12;96228.94;;;24.48;54.98
80851;BME280;70268;50.292;6.666;2023-06-14T02:50:41;96230.56;;;24.49;54.82
80851;BME280;70268;50.292;6.666;2023-06-14T02:53:09;96233.22;;;24.49;54.81
80851;BME280;70268;50.292;6.666;2023-06-14T02:55:39;96225.94;;;24.44;54.87
80851;BME280;70268;50.292;6.666;2023-06-14T02:58:08;96231.06;;;24.39;55.36
80851;BME280;70268;50.292;6.666;2023-06-14T03:00:37;96236.72;;;24.43;54.90
80851;BME280;70268;50.292;6.666;2023-06-14T03:03:08;96232.22;;;24.43;54.90
80851;BME280;70268;50.292;6.666;2023-06-14T03:05:47;96236.13;;;24.41;54.99
80851;BME280;70268;50.292;6.666;2023-06-14T03:08:21;96234.06;;;24.43;54.98
80851;BME280;70268;50.292;6.666;2023-06-14T03:10:55;96235.72;;;24.37;54.95
80851;BME280;70268;50.292;6.666;2023-06-14T03:13:25;96238.34;;;24.37;55.11
80851;BME280;70268;50.292;6.666;2023-06-14T03:15:54;96242.00;;;24.43;54.98
80851;BME280;70268;50.292;6.666;2023-06-14T03:18:24;96249.94;;;24.43;55.02
80851;BME280;70268;50.292;6.666;2023-06-14T03:20:57;96251.63;;;24.30;55.53
80851;BME280;70268;50.292;6.666;2023-06-14T03:23:27;96250.56;;;24.38;55.34
80851;BME280;70268;50.292;6.666;2023-06-14T03:25:57;96250.56;;;24.38;55.09
80851;BME280;70268;50.292;6.666;2023-06-14T03:28:25;96253.19;;;24.38;55.11
80851;BME280;70268;50.292;6.666;2023-06-14T03:30:56;96252.41;;;24.31;55.20
80851;BME280;70268;50.292;6.666;2023-06-14T03:33:26;96244.47;;;24.38;55.18
80851;BME280;70268;50.292;6.666;2023-06-14T03:35:56;96253.63;;;24.35;55.25
80851;BME280;70268;50.292;6.666;2023-06-14T03:38:26;96251.97;;;24.41;55.26
80851;BME280;70268;50.292;6.666;2023-06-14T03:40:55;96256.66;;;24.39;55.25
80851;BME280;70268;50.292;6.666;2023-06-14T03:43:24;96256.84;;;24.37;55.28
80851;BME280;70268;50.292;6.666;2023-06-14T03:45:53;96263.56;;;24.40;55.30
80851;BME280;70268;50.292;6.666;2023-06-14T03:48:24;96261.97;;;24.32;55.64
80851;BME280;70268;50.292;6.666;2023-06-14T03:50:53;96266.06;;;24.28;55.13
80851;BME280;70268;50.292;6.666;2023-06-14T03:53:27;96273.56;;;24.17;54.03
80851;BME280;70268;50.292;6.666;2023-06-14T03:55:57;96267.28;;;24.25;52.94
80851;BME280;70268;50.292;6.666;2023-06-14T03:58:35;96270.31;;;24.29;52.59
80851;BME280;70268;50.292;6.666;2023-06-14T04:01:04;96269.34;;;24.16;52.52
80851;BME280;70268;50.292;6.666;2023-06-14T04:03:34;96273.41;;;24.12;52.25
80851;BME280;70268;50.292;6.666;2023-06-14T04:06:04;96280.09;;;24.15;51.73
80851;BME280;70268;50.292;6.666;2023-06-14T04:08:34;96280.72;;;24.10;51.89
80851;BME280;70268;50.292;6.666;2023-06-14T04:11:02;96274.44;;;24.05;51.91
80851;BME280;70268;50.292;6.666;2023-06-14T04:13:31;96278.72;;;24.06;51.60
80851;BME280;70268;50.292;6.666;2023-06-14T04:16:02;96280.53;;;24.05;51.49
80851;BME280;70268;50.292;6.666;2023-06-14T04:18:34;96280.78;;;23.97;51.45
80851;BME280;70268;50.292;6.666;2023-06-14T04:21:02;96282.03;;;23.88;51.57
80851;BME280;70268;50.292;6.666;2023-06-14T04:23:31;96288.06;;;24.02;51.29
80851;BME280;70268;50.292;6.666;2023-06-14T04:26:03;96287.84;;;23.96;51.39
80851;BME280;70268;50.292;6.666;2023-06-14T04:28:31;96282.19;;;23.93;51.37
80851;BME280;70268;50.292;6.666;2023-06-14T04:31:04;96283.19;;;23.92;51.24
80851;BME280;70268;50.292;6.666;2023-06-14T04:33:35;96279.13;;;23.96;51.08
80851;BME280;70268;50.292;6.666;2023-06-14T04:36:14;96282.16;;;23.99;51.03
80851;BME280;70268;50.292;6.666;2023-06-14T04:38:47;96283.59;;;24.02;51.02
80851;BME280;70268;50.292;6.666;2023-06-14T04:41:18;96286.66;;;24.06;50.89
80851;BME280;70268;50.292;6.666;2023-06-14T04:43:46;96287.44;;;24.06;50.82
80851;BME280;70268;50.292;6.666;2023-06-14T04:46:16;96290.69;;;24.08;50.97
80851;BME280;70268;50.292;6.666;2023-06-14T04:48:46;96292.94;;;24.05;50.81
80851;BME280;70268;50.292;6.666;2023-06-14T04:51:17;96291.31;;;24.04;50.87
80851;BME280;70268;50.292;6.666;2023-06-14T04:53:49;96297.59;;;24.03;51.32
80851;BME280;70268;50.292;6.666;2023-06-14T04:56:19;96294.13;;;24.15;51.25
80851;BME280;70268;50.292;6.666;2023-06-14T04:58:49;96299.19;;;24.17;50.99
80851;BME280;70268;50.292;6.666;2023-06-14T05:01:18;96298.97;;;24.19;51.33
80851;BME280;70268;50.292;6.666;2023-06-14T05:03:48;96304.09;;;24.20;51.04
80851;BME280;70268;50.292;6.666;2023-06-14T05:06:17;96304.69;;;24.22;51.21
80851;BME280;70268;50.292;6.666;2023-06-14T05:08:46;96303.44;;;24.25;51.22
80851;BME280;70268;50.292;6.666;2023-06-14T05:11:15;96316.88;;;24.23;51.27
80851;BME280;70268;50.292;6.666;2023-06-14T05:13:45;96306.69;;;24.27;51.36
80851;BME280;70268;50.292;6.666;2023-06-14T05:16:14;96303.25;;;24.26;51.31
80851;BME280;70268;50.292;6.666;2023-06-14T05:18:46;96301.00;;;24.30;51.25
80851;BME280;70268;50.292;6.666;2023-06-14T05:21:15;96308.09;;;24.36;51.12
80851;BME280;70268;50.292;6.666;2023-06-14T05:23:44;96302.00;;;24.36;51.14
80851;BME280;70268;50.292;6.666;2023-06-14T05:26:13;96302.59;;;24.38;51.03
80851;BME280;70268;50.292;6.666;2023-06-14T05:28:42;96298.91;;;24.39;51.20
80851;BME280;70268;50.292;6.666;2023-06-14T05:31:12;96308.88;;;24.43;51.12
80851;BME280;70268;50.292;6.666;2023-06-14T05:33:40;96303.00;;;24.41;51.06
80851;BME280;70268;50.292;6.666;2023-06-14T05:36:09;96305.00;;;24.46;51.08
80851;BME280;70268;50.292;6.666;2023-06-14T05:38:37;96307.25;;;24.42;51.16
80851;BME280;70268;50.292;6.666;2023-06-14T05:41:06;96304.19;;;24.45;50.82
80851;BME280;70268;50.292;6.666;2023-06-14T05:43:34;96303.38;;;24.45;51.05
80851;BME280;70268;50.292;6.666;2023-06-14T05:46:03;96314.94;;;24.50;50.99
80851;BME280;70268;50.292;6.666;2023-06-14T05:48:33;96321.03;;;24.51;50.89
80851;BME280;70268;50.292;6.666;2023-06-14T05:51:01;96317.59;;;24.50;51.00
80851;BME280;70268;50.292;6.666;2023-06-14T05:53:30;96323.47;;;24.52;51.04
80851;BME280;70268;50.292;6.666;2023-06-14T05:55:58;96326.31;;;24.51;50.91
80851;BME280;70268;50.292;6.666;2023-06-14T05:58:27;96320.38;;;24.56;51.17
80851;BME280;70268;50.292;6.666;2023-06-14T06:00:56;96319.38;;;24.57;51.04
80851;BME280;70268;50.292;6.666;2023-06-14T06:03:24;96323.66;;;24.58;50.97
80851;BME280;70268;50.292;6.666;2023-06-14T06:05:58;96324.03;;;24.61;50.78
80851;BME280;70268;50.292;6.666;2023-06-14T06:08:26;96317.94;;;24.61;50.86
80851;BME280;70268;50.292;6.666;2023-06-14T06:10:55;96321.19;;;24.63;50.60
80851;BME280;70268;50.292;6.666;2023-06-14T06:13:23;96323.03;;;24.62;50.85
80851;BME280;70268;50.292;6.666;2023-06-14T06:15:52;96322.59;;;24.65;50.82
80851;BME280;70268;50.292;6.666;2023-06-14T06:18:20;96324.03;;;24.68;50.77
80851;BME280;70268;50.292;6.666;2023-06-14T06:20:49;96321.97;;;24.70;50.54
80851;BME280;70268;50.292;6.666;2023-06-14T06:23:19;96325.19;;;24.72;50.66
80851;BME280;70268;50.292;6.666;2023-06-14T06:25:48;96325.19;;;24.72;50.87
80851;BME280;70268;50.292;6.666;2023-06-14T06:28:17;96332.69;;;24.75;50.67
80851;BME280;70268;50.292;6.666;2023-06-14T06:30:45;96326.19;;;24.78;50.84
80851;BME280;70268;50.292;6.666;2023-06-14T06:33:14;96330.88;;;24.76;50.54
80851;BME280;70268;50.292;6.666;2023-06-14T06:35:42;96333.13;;;24.79;50.64
80851;BME280;70268;50.292;6.666;2023-06-14T06:38:11;96337.75;;;24.83;50.56
80851;BME280;70268;50.292;6.666;2023-06-14T06:40:41;96338.56;;;24.84;50.40
80851;BME280;70268;50.292;6.666;2023-06-14T06:43:09;96336.72;;;24.84;50.52
80851;BME280;70268;50.292;6.666;2023-06-14T06:45:45;96338.94;;;24.87;50.57
80851;BME280;70268;50.292;6.666;2023-06-14T06:48:14;96339.78;;;24.88;50.45
80851;BME280;70268;50.292;6.666;2023-06-14T06:50:43;96341.38;;;24.89;50.63
80851;BME280;70268;50.292;6.666;2023-06-14T06:53:11;96349.09;;;24.91;50.59
80851;BME280;70268;50.292;6.666;2023-06-14T06:55:48;96349.91;;;24.91;50.60
80851;BME280;70268;50.292;6.666;2023-06-14T06:58:17;96345.44;;;24.92;50.51
80851;BME280;70268;50.292;6.666;2023-06-14T07:00:46;96347.47;;;24.96;50.63
80851;BME280;70268;50.292;6.666;2023-06-14T07:03:14;96350.13;;;24.96;50.43
80851;BME280;70268;50.292;6.666;2023-06-14T07:05:43;96342.81;;;24.98;50.62
80851;BME280;70268;50.292;6.666;2023-06-14T07:08:12;96351.53;;;24.99;50.64
80851;BME280;70268;50.292;6.666;2023-06-14T07:10:40;96347.88;;;25.00;50.63
80851;BME280;70268;50.292;6.666;2023-06-14T07:13:10;96354.78;;;25.01;50.29
80851;BME280;70268;50.292;6.666;2023-06-14T07:15:39;96365.13;;;25.02;50.15
80851;BME280;70268;50.292;6.666;2023-06-14T07:18:07;96361.25;;;25.05;50.26
80851;BME280;70268;50.292;6.666;2023-06-14T07:20:36;96362.69;;;25.08;50.34
80851;BME280;70268;50.292;6.666;2023-06-14T07:23:05;96366.94;;;25.09;50.28
80851;BME280;70268;50.292;6.666;2023-06-14T07:25:34;96366.13;;;25.08;50.40
80851;BME280;70268;50.292;6.666;2023-06-14T07:28:03;96364.91;;;25.11;50.32
80851;BME280;70268;50.292;6.666;2023-06-14T07:30:33;96367.34;;;25.12;50.13
80851;BME280;70268;50.292;6.666;2023-06-14T07:33:01;96366.28;;;25.13;50.01
80851;BME280;70268;50.292;6.666;2023-06-14T07:35:30;96358.56;;;25.12;49.97
80851;BME280;70268;50.292;6.666;2023-06-14T07:37:58;96374.00;;;25.15;49.94
80851;BME280;70268;50.292;6.666;2023-06-14T07:40:27;96368.50;;;25.16;49.98
80851;BME280;70268;50.292;6.666;2023-06-14T07:42:55;96363.22;;;25.16;50.13
80851;BME280;70268;50.292;6.666;2023-06-14T07:45:24;96374.63;;;25.17;50.03
80851;BME280;70268;50.292;6.666;2023-06-14T07:47:54;96365.84;;;25.16;50.13
80851;BME280;70268;50.292;6.666;2023-06-14T07:50:24;96366.25;;;25.20;49.96
80851;BME280;70268;50.292;6.666;2023-06-14T07:52:52;96368.91;;;25.20;49.84
80851;BME280;70268;50.292;6.666;2023-06-14T07:55:21;96363.19;;;25.23;49.85
80851;BME280;70268;50.292;6.666;2023-06-14T07:57:49;96367.66;;;25.22;50.04
80851;BME280;70268;50.292;6.666;2023-06-14T08:00:19;96362.34;;;25.22;49.71
80851;BME280;70268;50.292;6.666;2023-06-14T08:02:49;96371.72;;;25.25;50.03
80851;BME280;70268;50.292;6.666;2023-06-14T08:05:22;96367.22;;;25.26;49.82
80851;BME280;70268;50.292;6.666;2023-06-14T08:07:51;96364.34;;;25.27;49.74
80851;BME280;70268;50.292;6.666;2023-06-14T08:10:21;96369.47;;;25.29;49.73
80851;BME280;70268;50.292;6.666;2023-06-14T08:12:50;96367.63;;;25.29;49.79
80851;BME280;70268;50.292;6.666;2023-06-14T08:15:18;96372.69;;;25.31;49.76
80851;BME280;70268;50.292;6.666;2023-06-14T08:17:48;96363.75;;;25.32;49.61
80851;BME280;70268;50.292;6.666;2023-06-14T08:20:17;96368.00;;;25.33;49.53
80851;BME280;70268;50.292;6.666;2023-06-14T08:22:47;96363.75;;;25.32;49.39
80851;BME280;70268;50.292;6.666;2023-06-14T08:25:16;96366.97;;;25.34;49.44
80851;BME280;70268;50.292;6.666;2023-06-14T08:27:45;96365.97;;;25.35;49.47
80851;BME280;70268;50.292;6.666;2023-06-14T08:30:14;96367.56;;;25.36;49.40
80851;BME280;70268;50.292;6.666;2023-06-14T08:32:44;96363.91;;;25.37;49.13
80851;BME280;70268;50.292;6.666;2023-06-14T08:35:19;96363.91;;;25.37;49.21
80851;BME280;70268;50.292;6.666;2023-06-14T08:37:50;96360.25;;;25.38;49.00
80851;BME280;70268;50.292;6.666;2023-06-14T08:40:20;96356.53;;;25.39;49.04
80851;BME280;70268;50.292;6.666;2023-06-14T08:42:51;96365.91;;;25.42;49.44
80851;BME280;70268;50.292;6.666;2023-06-14T08:45:20;96363.47;;;25.40;49.19
80851;BME280;70268;50.292;6.666;2023-06-14T08:47:53;96366.91;;;25.40;49.13
80851;BME280;70268;50.292;6.666;2023-06-14T08:50:26;96365.09;;;25.41;49.14
80851;BME280;70268;50.292;6.666;2023-06-14T08:53:00;96361.41;;;25.42;49.00
80851;BME280;70268;50.292;6.666;2023-06-14T08:55:31;96368.34;;;25.43;48.98
80851;BME280;70268;50.292;6.666;2023-06-14T08:58:03;96369.13;;;25.44;48.75
80851;BME280;70268;50.292;6.666;2023-06-14T09:00:32;96371.78;;;25.44;48.91
80851;BME280;70268;50.292;6.666;2023-06-14T09:03:01;96367.31;;;25.44;48.99
80851;BME280;70268;50.292;6.666;2023-06-14T09:05:31;96373.41;;;25.45;48.76
80851;BME280;70268;50.292;6.666;2023-06-14T09:08:01;96368.91;;;25.45;48.72
80851;BME280;70268;50.292;6.666;2023-06-14T09:10:33;96367.09;;;25.46;48.89
80851;BME280;70268;50.292;6.666;2023-06-14T09:13:05;96366.06;;;25.47;48.84
80851;BME280;70268;50.292;6.666;2023-06-14T09:15:35;96365.03;;;25.48;48.98
80851;BME280;70268;50.292;6.666;2023-06-14T09:18:03;96361.81;;;25.46;48.75
80851;BME280;70268;50.292;6.666;2023-06-14T09:20:33;96363.41;;;25.47;48.81
80851;BME280;70268;50.292;6.666;2023-06-14T09:23:04;96359.97;;;25.46;48.84
80851;BME280;70268;50.292;6.666;2023-06-14T09:25:42;96358.94;;;25.47;48.94
80851;BME280;70268;50.292;6.666;2023-06-14T09:28:11;96356.09;;;25.49;48.79
80851;BME280;70268;50.292;6.666;2023-06-14T09:30:40;96364.03;;;25.49;48.94
80851;BME280;70268;50.292;6.666;2023-06-14T09:33:09;96364.81;;;25.49;48.76
80851;BME280;70268;50.292;6.666;2023-06-14T09:35:38;96370.91;;;25.50;48.73
80851;BME280;70268;50.292;6.666;2023-06-14T09:38:08;96368.28;;;25.50;48.69
80851;BME280;70268;50.292;6.666;2023-06-14T09:40:37;96369.09;;;25.50;48.60
80851;BME280;70268;50.292;6.666;2023-06-14T09:43:06;96374.41;;;25.50;48.55
80851;BME280;70268;50.292;6.666;2023-06-14T09:45:38;96377.03;;;25.50;48.60
80851;BME280;70268;50.292;6.666;2023-06-14T09:48:08;96377.03;;;25.50;48.78
80851;BME280;70268;50.292;6.666;2023-06-14T09:50:37;96381.28;;;25.51;48.55
80851;BME280;70268;50.292;6.666;2023-06-14T09:53:11;96386.59;;;25.51;48.42
80851;BME280;70268;50.292;6.666;2023-06-14T09:55:41;96385.78;;;25.51;48.49
80851;BME280;70268;50.292;6.666;2023-06-14T09:58:10;96383.13;;;25.51;48.42
80851;BME280;70268;50.292;6.666;2023-06-14T10:00:41;96390.06;;;25.52;48.73
80851;BME280;70268;50.292;6.666;2023-06-14T10:03:18;96385.00;;;25.50;48.64
80851;BME280;70268;50.292;6.666;2023-06-14T10:05:50;96390.28;;;25.50;48.74
80851;BME280;70268;50.292;6.666;2023-06-14T10:08:25;96385.00;;;25.50;48.43
80851;BME280;70268;50.292;6.666;2023-06-14T10:10:55;96383.13;;;25.51;48.67
80851;BME280;70268;50.292;6.666;2023-06-14T10:13:25;96380.50;;;25.51;48.75
80851;BME280;70268;50.292;6.666;2023-06-14T10:15:59;96381.50;;;25.50;48.84
80851;BME280;70268;50.292;6.666;2023-06-14T10:18:35;96383.13;;;25.51;48.89
80851;BME280;70268;50.292;6.666;2023-06-14T10:21:15;96380.50;;;25.51;48.85
80851;BME280;70268;50.292;6.666;2023-06-14T10:23:48;96383.72;;;25.53;48.77
80851;BME280;70268;50.292;6.666;2023-06-14T10:26:20;96384.78;;;25.52;48.62
80851;BME280;70268;50.292;6.666;2023-06-14T10:28:59;96385.56;;;25.52;48.72
80851;BME280;70268;50.292;6.666;2023-06-14T10:31:42;96372.56;;;25.51;48.78
80851;BME280;70268;50.292;6.666;2023-06-14T10:34:11;96376.00;;;25.51;48.60
80851;BME280;70268;50.292;6.666;2023-06-14T10:36:42;96383.72;;;25.53;48.94
80851;BME280;70268;50.292;6.666;2023-06-14T10:39:15;96377.63;;;25.52;48.88
80851;BME280;70268;50.292;6.666;2023-06-14T10:41:52;96369.91;;;25.51;48.73
80851;BME280;70268;50.292;6.666;2023-06-14T10:44:37;96377.84;;;25.51;48.99
80851;BME280;70268;50.292;6.666;2023-06-14T10:47:08;96369.09;;;25.50;48.84
80851;BME280;70268;50.292;6.666;2023-06-14T10:49:40;96368.88;;;25.52;48.69
80851;BME280;70268;50.292;6.666;2023-06-14T10:52:11;96365.19;;;25.53;48.49
80851;BME280;70268;50.292;6.666;2023-06-14T10:55:09;96363.81;;;25.50;48.83
80851;BME280;70268;50.292;6.666;2023-06-14T10:57:42;96363.81;;;25.50;49.00
80851;BME280;70268;50.292;6.666;2023-06-14T11:00:19;96365.63;;;25.50;49.11
80851;BME280;70268;50.292;6.666;2023-06-14T11:05:55;96366.47;;;25.50;49.03
80851;BME280;70268;50.292;6.666;2023-06-14T11:11:32;96369.69;;;25.52;48.14
80851;BME280;70268;50.292;6.666;2023-06-14T11:14:01;96377.63;;;25.52;48.26
80851;BME280;70268;50.292;6.666;2023-06-14T11:16:30;96369.91;;;25.51;48.56
80851;BME280;70268;50.292;6.666;2023-06-14T11:19:01;96377.84;;;25.51;48.68
80851;BME280;70268;50.292;6.666;2023-06-14T11:21:32;96380.91;;;25.48;48.40
80851;BME280;70268;50.292;6.666;2023-06-14T11:24:01;96379.28;;;25.47;48.68
80851;BME280;70268;50.292;6.666;2023-06-14T11:26:31;96377.69;;;25.46;48.66
80851;BME280;70268;50.292;6.666;2023-06-14T11:29:02;96374.22;;;25.45;48.66
80851;BME280;70268;50.292;6.666;2023-06-14T11:31:30;96368.34;;;25.43;48.97
80851;BME280;70268;50.292;6.666;2023-06-14T11:34:00;96378.91;;;25.43;48.86
80851;BME280;70268;50.292;6.666;2023-06-14T11:36:29;96375.47;;;25.43;48.48
80851;BME280;70268;50.292;6.666;2023-06-14T11:38:59;96375.47;;;25.43;48.35
80851;BME280;70268;50.292;6.666;2023-06-14T11:41:38;96370.97;;;25.43;48.34
80851;BME280;70268;50.292;6.666;2023-06-14T11:44:07;96376.28;;;25.43;48.46
80851;BME280;70268;50.292;6.666;2023-06-14T11:46:36;96364.28;;;25.40;48.90
80851;BME280;70268;50.292;6.666;2023-06-14T11:49:06;96366.91;;;25.40;49.15
80851;BME280;70268;50.292;6.666;2023-06-14T11:51:37;96375.91;;;25.39;49.20
80851;BME280;70268;50.292;6.666;2023-06-14T11:54:06;96373.25;;;25.39;49.28
80851;BME280;70268;50.292;6.666;2023-06-14T11:56:37;96373.25;;;25.39;49.22
80851;BME280;70268;50.292;6.666;2023-06-14T11:59:06;96374.84;;;25.40;48.91
80851;BME280;70268;50.292;6.666;2023-06-14T12:01:38;96372.22;;;25.40;48.58
80851;BME280;70268;50.292;6.666;2023-06-14T12:04:07;96373.25;;;25.39;48.63
80851;BME280;70268;50.292;6.666;2023-06-14T12:06:35;96366.13;;;25.40;48.61
80851;BME280;70268;50.292;6.666;2023-06-14T12:09:07;96367.97;;;25.39;48.73
80851;BME280;70268;50.292;6.666;2023-06-14T12:11:42;96377.50;;;25.40;48.56
80851;BME280;70268;50.292;6.666;2023-06-14T12:14:10;96372.22;;;25.40;48.07
80851;BME280;70268;50.292;6.666;2023-06-14T12:16:40;96371.41;;;25.40;48.55
80851;BME280;70268;50.292;6.666;2023-06-14T12:19:12;96364.50;;;25.39;48.22
80851;BME280;70268;50.292;6.666;2023-06-14T12:21:41;96367.97;;;25.39;48.91
80851;BME280;70268;50.292;6.666;2023-06-14T12:24:12;96367.13;;;25.39;48.87
80851;BME280;70268;50.292;6.666;2023-06-14T12:26:42;96368.97;;;25.38;49.08
80851;BME280;70268;50.292;6.666;2023-06-14T12:29:12;96368.19;;;25.38;49.09
80851;BME280;70268;50.292;6.666;2023-06-14T12:31:40;96374.50;;;25.37;48.99
80851;BME280;70268;50.292;6.666;2023-06-14T12:34:10;96366.34;;;25.38;48.67
80851;BME280;70268;50.292;6.666;2023-06-14T12:36:38;96367.34;;;25.37;48.80
80851;BME280;70268;50.292;6.666;2023-06-14T12:39:12;96377.72;;;25.39;48.16
80851;BME280;70268;50.292;6.666;2023-06-14T12:41:42;96377.72;;;25.39;48.46
80851;BME280;70268;50.292;6.666;2023-06-14T12:44:11;96382.22;;;25.38;48.98
80851;BME280;70268;50.292;6.666;2023-06-14T12:46:40;96374.28;;;25.38;48.79
80851;BME280;70268;50.292;6.666;2023-06-14T12:49:09;96368.75;;;25.40;48.55
80851;BME280;70268;50.292;6.666;2023-06-14T12:51:39;96379.34;;;25.40;48.73
80851;BME280;70268;50.292;6.666;2023-06-14T12:54:08;96367.13;;;25.39;49.10
80851;BME280;70268;50.292;6.666;2023-06-14T12:56:37;96374.06;;;25.40;48.99
80851;BME280;70268;50.292;6.666;2023-06-14T12:59:07;96376.91;;;25.38;48.69
80851;BME280;70268;50.292;6.666;2023-06-14T13:01:37;96384.66;;;25.40;48.38
80851;BME280;70268;50.292;6.666;2023-06-14T13:04:06;96376.72;;;25.40;48.38
80851;BME280;70268;50.292;6.666;2023-06-14T13:06:35;96374.06;;;25.40;48.61
80851;BME280;70268;50.292;6.666;2023-06-14T13:09:04;96376.72;;;25.40;48.73
80851;BME280;70268;50.292;6.666;2023-06-14T13:11:33;96376.72;;;25.40;48.92
80851;BME280;70268;50.292;6.666;2023-06-14T13:14:02;96374.84;;;25.40;48.89
80851;BME280;70268;50.292;6.666;2023-06-14T13:16:52;96372.22;;;25.40;49.04
80851;BME280;70268;50.292;6.666;2023-06-14T13:19:21;96378.56;;;25.39;49.14
80851;BME280;70268;50.292;6.666;2023-06-14T13:21:49;96377.50;;;25.40;48.92